Hovedside
METAR-TAF:

METAR-TAF

Lufthavner :

Sindal, Danmark

breddegrad: 57-30N, lengdegrad: 010-13E, høyde over havet: 28 m

Gjeldene værobservasjon

Denne rapporten ble laget for 6 timer og 7 minutter siden, klokken 12:50 UTC
Vind 6 kt fra Øst-nordøst
Temperatur 14°C
Luftfuktighet 77%
Trykk 1023 hPa
Sikt 10 km eller mer
Spredte skyer i en høyde av 1600 ft
Brutte skyer i en høyde av 2200 ft

METAR: EKSN 221250Z 07006KT 9999 SCT016 BKN022 14/10 Q1023

Tid: 20:57 (18:57 UTC)

Varsel

Denne rapporten ble laget for 7 timer og 46 minutter siden, klokken 11:11 UTC
Varsel gyldig fra 22. klokken 11 UTC til 22. klokken 15 UTC
Vind 7 kt fra Øst-sørøst
Sikt 10 km eller mer
Spredte skyer i en høyde av 2000 ft
Midlertidig
fra 22. klokken 11 UTC til 22. klokken 15 UTC
Brutte skyer i en høyde av 1000 ft

TAF: EKSN 221111Z 2211/2215 11007KT 9999 SCT020 TEMPO 2211/2215 BKN010

Værobservasjoner og værvarsel for over 4000 flyplasser (METAR- og TAF-rapporter).

Tilgjengelige stasjoner er representert av de røde og gule prikkene på kartet.

Hold musepekeren over prikken for å se navnet på stasjonen.

Klikk så for å se værobservasjoner og -varsler.

For å forandre kartet kan du klikke på den grønne knappen med svart kryss for å zoome inn, på den grønne knappen med strek for å zoome ut, eller på de grønne pilene for å se tilstøtende kart.


METAR-TAF: